LFBC 182200Z AUTO 06006KT CAVOK 09/04 Q1010
LFBD 182200Z AUTO 06006KT CAVOK 10/03 Q1010 NOSIG